Hoosick Falls, NY (12090)

6:57 AM EDT on July 26, 2016 (GMT -0400)
Southwest Hoosick | | Change Station

Elev 909 ft 42.87 °N, 73.41 °W | Updated 1 second ago

Partly Cloudy
Partly Cloudy
69.4 °F
Feels Like 69.4 °F
N
12.7
Wind Variable Wind from WSW
Gusts 12.7 mph

Today
High -- | Low -- °F
--% Chance of Precip.
Yesterday
High -- | Low -- °F
Precip. -- in
Pressure 29.87 in
Visibility 10.0 miles
Clouds Few 5500 ft
Dew Point 65 °F
Humidity 86%
Rainfall 0.00 in
Snow Depth Not available.
5:38 AM 8:20 PM
Waning Gibbous, 56% visible
METAR KDDH 261054Z AUTO 24007KT 10SM FEW055 21/19 A2988 RMK AO2 SLP114 T02110189 TSNO
Pressure 29.87 in
Visibility 10.0 miles
Clouds Few 5500 ft
Dew Point 65 °F
Humidity 86%
Rainfall 0.00 in
Snow Depth Not available.
5:38 AM 8:20 PM
Waning Gibbous, 56% visible
METAR KDDH 261054Z AUTO 24007KT 10SM FEW055 21/19 A2988 RMK AO2 SLP114 T02110189 TSNO

10-Day Weather Forecast

Almanac

Astronomy

Jul. 26, 2016 Rise Set
Actual Time
Civil Twilight
Nautical Twilight
Astronomical Twilight
Moon
Length of Visible Light
Length of Day
Tomorrow will be .
, % of the Moon is Illuminated

Today's Extremes

State Highs State Lows

Community

WunderPhotos

Upload Photos

1,927,557 photos uploaded!

WunderBlog® & News

Nearby

Air Quality

  Air Quality AQ Index Pollutant
Not available.

Snow Depth

Station Depth Elevation

Earthquake Activity

City Distance Mag. Time & Date
Minimum magnitude displayed is 2.5.

Coastal Water Temperatures

Place Temperature

Stations

Nearby Weather Stations

Station Location Temp. Windchill Dew Point Humidity Wind Precip. Elev Updated Type
                   

Watches & Warnings

There are currently no watches in effect.